首页
METAR-TAF:

METAR-TAF

机场 :

圣加仑, 瑞士

纬度: 47-29-06N, 经度: 009-33-43E, 海拔: 398米

当前天气观测

该预报发布于15分钟前的17:20 UTC
风速2节,风向
温度 5°C
湿度 87%
气压 1017 hPa
能见度10公里或以上
多云层高于3300英尺

METAR: LSZR 191720Z 19002KT 9999 BKN033 05/03 Q1017 NOSIG RMK M

时间: 18:35 (17:35 UTC)

预报

该预报发布于3小时和10分钟前的14:25 UTC
预报有效从19日的 15点(UTC)到 19日的 24点(UTC)
风速3节,风向多变
能见度10公里或以上
多云层高于3300英尺

TAF: LSZR 191425Z 1915/1924 VRB03KT 9999 BKN033

超过4000个机场的气象观测和天气预报(METAR&TAF报告)。

可查询的气象台以黄色和红色小点在地图上表示。

将鼠标移到小点上方,可查看气象台名称。

然后点击查看天气观测和预报。

如需切换地图:点击带黑十字的绿色按钮放大地图;点击带横线的绿色按钮缩小地图;或者点击绿色箭头查看邻近地区的地图。


METAR-TAF: